طوكيو, اليابان

07:02 PM JST on سبتهبر 21, 2014 (GMT +0900)
Tokyo (Haneda) International | Change Station
CLOSE
Current Station
Airport
Location: Tokyo,
Elevation: 26 ft
Nearby Weather Stations

Elev 26 ft 35.55 °N, 139.78 °E | Updated 32 minutes ago

Partly Cloudy
غائم جزئياً
70 °F
Feels Like 70 °F
N
14
ريح متغير ريح from جنوب شرقی

هذا اليوم
High -- | Low -- °F
--% Chance of Precip.
Yesterday
High -- | Low -- °F
Precip. -- في
5:27 AM 5:40 PM
الهلال الأخير, 7% visible
الضغط 30.01 في
وضوح الرؤية 6.2 أميال
سحابات Few 5000 ft
نقطة الندى 59 °F
الرطوبة 68%
Rainfall 0.00 في
عمق الثلج Not available.
الأشعة فوق البنفسجية 0 out of 12
Pollen Not available.
جودة الهواء Not available.
Flu Activity Not available.
METAR RJTT 210930Z 13012KT 9999 FEW050 SCT/// 21/15 Q1016 NOSIG RMK 1SC050 A3002

More Conditions Fewer Conditions

الضغط 30.01 في
وضوح الرؤية 6.2 أميال
سحابات Few 5000 ft
نقطة الندى 59 °F
الرطوبة 68%
Rainfall 0.00 في
عمق الثلج Not available.
الأشعة فوق البنفسجية 0 out of 12
Pollen Not available.
جودة الهواء Not available.
Flu Activity Not available.
METAR RJTT 210930Z 13012KT 9999 FEW050 SCT/// 21/15 Q1016 NOSIG RMK 1SC050 A3002

More Conditions Fewer Conditions

10-Day Weather Forecast

Almanac

علم الفلك

Sep. 21, 2014 Rise Set
Actual Time 5:27 AM JST 5:40 PM JST
Civil Twilight 5:02 AM JST 6:05 PM JST
Nautical Twilight 4:32 AM JST 6:35 PM JST
Astronomical Twilight 4:02 AM JST 7:05 PM JST
قمر 2:31 AM JST 3:51 PM JST
Length Of Visible Light 13h 03m
طول الیوم
12h 12m
Tomorrow will be 2m 13s shorter.
الهلال الأخير, 7% of the Moon is Illuminated
هذا اليوم
الهلال الأخير
Sep 24
New
Oct 1
الربع الاول
Oct 8
بدر
Oct 15
الربع الآخر

Yesterday's Extremes

Country Highs Country Lows

Community

WunderPhotos

Upload Photos

1,755,106 photos uploaded!

Nearby

جودة الهواء

Not available.

عمق الثلج

Not available.

Earthquake Activity

City Distance Mag. Time & Date
No recent earthquake activity has been reported nearby.
Minimum magnitude displayed is 2.5.

Coastal Water Temperatures

مكان درجات الحرارة
No Stations Reporting

Nearby Weather Stations